Time;durP1;ratioP1;P1;durP2;ratioP2;P2;SDS_P1;SDS_P2;PMS_P1;PMS_P2;Temp;Humidity;BMP_temperature;BMP_pressure;BME280_temperature;BME280_humidity;BME280_pressure;Samples;Min_cycle;Max_cycle;Signal;HPM_P1;HPM_P2
2022/09/11 00:01:14;;;;;;;1.10;0.65;;;24.70;52.30;;;;;;5049904;28;20135;-59
2022/09/11 00:03:43;;;;;;;0.15;0.10;;;24.70;52.30;;;;;;5050313;28;20055;-59
2022/09/11 00:06:13;;;;;;;0.10;0.10;;;24.80;52.40;;;;;;5049469;28;20055;-60
2022/09/11 00:08:41;;;;;;;0.75;0.20;;;24.80;52.30;;;;;;5049428;28;20497;-59
2022/09/11 00:11:18;;;;;;;0.10;0.10;;;24.80;52.30;;;;;;5049668;28;20045;-59
2022/09/11 00:13:48;;;;;;;0.45;0.20;;;24.80;52.30;;;;;;5048545;28;20044;-59
2022/09/11 00:16:30;;;;;;;;;;;24.80;52.30;;;;;;5046946;28;20048;-59
2022/09/11 00:18:59;;;;;;;0.20;0.20;;;24.80;52.30;;;;;;5049510;28;20388;-59
2022/09/11 00:21:26;;;;;;;0.20;0.20;;;24.80;52.30;;;;;;5049990;28;20130;-59
2022/09/11 00:23:54;;;;;;;0.45;0.40;;;24.80;52.30;;;;;;5032177;28;20379;-59
2022/09/11 00:26:21;;;;;;;0.40;0.10;;;24.80;52.30;;;;;;5049625;28;20059;-60
2022/09/11 00:28:49;;;;;;;1.15;0.20;;;24.80;52.30;;;;;;5032426;28;20049;-59
2022/09/11 00:31:20;;;;;;;1.20;0.10;;;24.80;52.30;;;;;;5048942;28;20045;-60
2022/09/11 00:33:48;;;;;;;2.80;0.50;;;24.80;52.30;;;;;;5049571;28;20224;-60
2022/09/11 00:36:18;;;;;;;0.32;0.20;;;24.80;52.30;;;;;;5049007;28;20095;-60
2022/09/11 00:38:45;;;;;;;0.40;0.13;;;24.80;52.30;;;;;;5031767;28;20083;-59
2022/09/11 00:41:15;;;;;;;0.75;0.10;;;24.80;52.30;;;;;;5031170;28;20062;-59
2022/09/11 00:43:59;;;;;;;0.70;0.25;;;24.80;52.30;;;;;;5048991;28;20045;-59
2022/09/11 00:46:33;;;;;;;0.57;0.17;;;24.80;52.30;;;;;;5044814;28;20059;-59
2022/09/11 00:49:09;;;;;;;0.10;0.10;;;24.80;52.30;;;;;;5048961;28;20044;-59
2022/09/11 00:51:37;;;;;;;1.52;0.10;;;24.80;52.40;;;;;;5049703;28;20052;-59
2022/09/11 00:54:05;;;;;;;0.10;0.10;;;24.80;52.30;;;;;;5048344;28;20041;-59
2022/09/11 00:56:36;;;;;;;1.15;0.63;;;24.70;52.30;;;;;;5048931;28;20053;-59
2022/09/11 00:59:04;;;;;;;0.20;0.20;;;24.70;52.30;;;;;;5049260;28;20077;-59
2022/09/11 01:01:32;;;;;;;0.77;0.10;;;24.70;52.30;;;;;;5031002;28;20421;-59
2022/09/11 01:04:03;;;;;;;0.30;0.10;;;24.80;52.30;;;;;;5049203;28;20095;-59
2022/09/11 01:06:31;;;;;;;0.10;0.10;;;24.80;52.30;;;;;;5030757;28;20430;-60
2022/09/11 01:08:59;;;;;;;0.30;0.08;;;24.70;52.30;;;;;;5048959;28;20051;-59
2022/09/11 01:11:38;;;;;;;0.10;0.10;;;24.80;52.30;;;;;;5049320;28;20041;-59
2022/09/11 01:14:35;;;;;;;0.03;0.03;;;24.70;52.30;;;;;;5049314;28;20045;-59
2022/09/11 01:17:24;;;;;;;0.38;0.20;;;24.70;52.30;;;;;;5048592;28;20040;-59
2022/09/11 01:20:23;;;;;;;0.43;0.20;;;24.70;52.30;;;;;;5043866;28;20052;-59
2022/09/11 01:23:23;;;;;;;0.57;0.17;;;24.70;52.30;;;;;;5049438;28;20053;-59
2022/09/11 01:26:14;;;;;;;0.35;0.22;;;24.70;52.30;;;;;;5048202;28;20060;-59
2022/09/11 01:28:51;;;;;;;0.40;0.10;;;24.70;52.30;;;;;;5048586;28;20053;-59
2022/09/11 01:31:24;;;;;;;0.10;0.03;;;24.70;52.30;;;;;;5031070;28;20041;-59
2022/09/11 01:34:05;;;;;;;0.05;0.05;;;24.70;52.30;;;;;;5049528;28;20142;-59
2022/09/11 01:36:43;;;;;;;1.17;0.13;;;24.70;52.30;;;;;;5047995;28;20041;-60
2022/09/11 01:39:12;;;;;;;0.08;0.00;;;24.70;52.30;;;;;;5048677;28;20379;-60
2022/09/11 01:42:02;;;;;;;0.10;0.10;;;24.70;52.30;;;;;;5047584;28;20051;-59
2022/09/11 01:44:35;;;;;;;0.17;0.10;;;24.70;52.90;;;;;;5048321;28;20513;-59
2022/09/11 01:47:09;;;;;;;0.10;0.10;;;24.70;52.30;;;;;;5048083;28;20056;-59
2022/09/11 01:49:47;;;;;;;0.20;0.10;;;24.70;52.30;;;;;;5047692;28;20048;-59
2022/09/11 01:52:21;;;;;;;0.20;0.10;;;24.70;52.30;;;;;;5044432;28;20405;-59
2022/09/11 01:54:55;;;;;;;0.20;0.10;;;24.70;52.30;;;;;;5048575;28;20045;-60
2022/09/11 01:57:35;;;;;;;0.20;0.15;;;24.70;52.30;;;;;;5047945;28;20067;-59
2022/09/11 02:00:05;;;;;;;;;;;24.70;52.40;;;;;;5031671;28;20045;-59
2022/09/11 02:02:35;;;;;;;;;;;24.70;52.40;;;;;;5048060;28;20332;-60
2022/09/11 02:05:15;;;;;;;0.10;0.10;;;24.70;52.40;;;;;;5048103;28;19925;-59
2022/09/11 02:07:51;;;;;;;0.17;0.15;;;24.70;52.40;;;;;;5047748;28;20712;-59
2022/09/11 02:10:38;;;;;;;0.47;0.10;;;24.70;52.40;;;;;;5048011;28;20424;-59
2022/09/11 02:13:29;;;;;;;0.25;0.20;;;24.70;52.40;;;;;;5040103;28;20073;-59
2022/09/11 02:16:05;;;;;;;0.10;0.10;;;24.70;52.40;;;;;;5048021;28;20072;-59
2022/09/11 02:19:08;;;;;;;0.20;0.13;;;24.70;52.40;;;;;;5047444;28;20057;-60
2022/09/11 02:21:36;;;;;;;0.50;0.20;;;24.70;52.40;;;;;;5047841;28;20130;-59
2022/09/11 02:24:04;;;;;;;0.55;0.10;;;24.70;52.40;;;;;;5043243;28;20049;-59
2022/09/11 02:26:35;;;;;;;1.75;0.10;;;24.70;52.40;;;;;;5029925;28;20516;-61
2022/09/11 02:29:02;;;;;;;0.10;0.10;;;24.70;52.40;;;;;;5048010;28;20053;-59
2022/09/11 02:31:30;;;;;;;0.13;0.10;;;24.70;52.40;;;;;;5047105;28;20045;-59
2022/09/11 02:33:57;;;;;;;0.25;0.17;;;24.70;52.40;;;;;;5030067;28;20477;-59
2022/09/11 02:36:59;;;;;;;0.40;0.10;;;24.70;52.30;;;;;;5047666;28;20052;-59
2022/09/11 02:40:06;;;;;;;0.10;0.10;;;24.70;52.30;;;;;;5047663;28;20055;-59
2022/09/11 02:42:57;;;;;;;0.25;0.10;;;24.70;52.90;;;;;;5047397;28;20045;-59
2022/09/11 02:45:57;;;;;;;0.00;0.00;;;24.70;52.40;;;;;;5047607;28;20455;-59
2022/09/11 02:48:55;;;;;;;0.20;0.10;;;24.70;52.30;;;;;;5046862;28;20052;-59
2022/09/11 02:52:01;;;;;;;0.20;0.00;;;24.70;52.40;;;;;;5047970;28;20518;-59
2022/09/11 02:54:51;;;;;;;0.47;0.10;;;24.70;52.40;;;;;;5043244;28;20044;-59
2022/09/11 02:57:31;;;;;;;0.17;0.13;;;24.70;52.40;;;;;;5047161;28;20049;-60
2022/09/11 03:00:03;;;;;;;0.15;0.10;;;24.70;52.40;;;;;;5047427;28;20047;-59
2022/09/11 03:02:32;;;;;;;0.40;0.10;;;24.70;52.50;;;;;;5046925;28;20053;-59
2022/09/11 03:04:59;;;;;;;0.10;0.10;;;24.70;52.40;;;;;;5049938;28;20056;-59
2022/09/11 03:07:27;;;;;;;0.00;0.00;;;24.70;52.40;;;;;;5050601;28;20410;-59
2022/09/11 03:09:54;;;;;;;0.00;0.00;;;24.70;52.40;;;;;;5051505;28;20045;-59
2022/09/11 03:12:21;;;;;;;0.10;0.10;;;24.70;52.40;;;;;;5033852;28;20076;-59
2022/09/11 03:14:48;;;;;;;0.77;0.10;;;24.70;52.40;;;;;;5050846;28;20429;-59
2022/09/11 03:17:16;;;;;;;0.00;0.00;;;24.70;52.40;;;;;;5051313;28;20072;-59
2022/09/11 03:19:43;;;;;;;0.88;0.10;;;24.70;52.40;;;;;;5032779;28;20060;-59
2022/09/11 03:22:10;;;;;;;0.22;0.10;;;24.70;52.40;;;;;;5051141;28;20049;-59
2022/09/11 03:24:38;;;;;;;0.00;0.00;;;24.70;52.40;;;;;;5051139;28;20048;-59
2022/09/11 03:27:05;;;;;;;2.10;0.03;;;24.70;52.40;;;;;;5046047;28;20052;-59
2022/09/11 03:29:32;;;;;;;0.47;0.20;;;24.70;52.40;;;;;;5050754;28;20049;-59
2022/09/11 03:31:59;;;;;;;0.20;0.20;;;24.70;52.40;;;;;;5032484;28;20502;-59
2022/09/11 03:34:27;;;;;;;0.20;0.10;;;24.70;52.40;;;;;;5050972;28;20075;-59
2022/09/11 03:36:54;;;;;;;0.08;0.00;;;24.70;52.40;;;;;;5033354;28;20053;-59
2022/09/11 03:39:21;;;;;;;0.40;0.10;;;24.70;52.40;;;;;;5050211;28;20068;-59
2022/09/11 03:41:48;;;;;;;0.15;0.15;;;24.70;52.40;;;;;;5050980;28;20067;-59
2022/09/11 03:44:16;;;;;;;0.00;0.00;;;24.70;52.40;;;;;;5049755;28;20045;-59
2022/09/11 03:46:43;;;;;;;0.13;0.13;;;24.70;52.40;;;;;;5033023;28;20052;-59
2022/09/11 03:49:10;;;;;;;0.63;0.38;;;24.70;52.40;;;;;;5050355;28;20048;-59
2022/09/11 03:51:37;;;;;;;0.00;0.00;;;24.70;52.40;;;;;;5032825;28;20049;-59
2022/09/11 03:54:04;;;;;;;0.10;0.10;;;24.70;52.40;;;;;;5050297;28;20051;-59
2022/09/11 03:56:31;;;;;;;0.20;0.10;;;24.70;52.40;;;;;;5032248;28;20071;-59
2022/09/11 03:58:59;;;;;;;0.10;0.00;;;24.70;52.40;;;;;;5045503;28;20068;-59
2022/09/11 04:01:28;;;;;;;0.10;0.10;;;24.70;52.40;;;;;;5050076;28;20049;-59
2022/09/11 04:03:55;;;;;;;0.10;0.10;;;24.70;52.40;;;;;;5032347;28;20317;-59
2022/09/11 04:06:23;;;;;;;0.00;0.00;;;24.70;52.40;;;;;;5050547;28;20208;-59
2022/09/11 04:08:50;;;;;;;0.25;0.10;;;24.70;52.40;;;;;;5049715;28;20353;-60
2022/09/11 04:11:17;;;;;;;0.25;0.03;;;24.70;52.40;;;;;;5050067;28;20515;-59
2022/09/11 04:13:44;;;;;;;0.63;0.00;;;24.70;52.50;;;;;;5032121;28;20231;-59
2022/09/11 04:16:13;;;;;;;0.10;0.00;;;24.70;52.40;;;;;;5030754;28;20052;-59
2022/09/11 04:18:42;;;;;;;0.45;0.10;;;24.70;52.40;;;;;;5049902;28;20049;-59
2022/09/11 04:21:13;;;;;;;0.10;0.10;;;24.70;52.40;;;;;;5031738;28;20055;-59
2022/09/11 04:23:40;;;;;;;0.10;0.03;;;24.70;52.40;;;;;;5032498;28;20128;-59
2022/09/11 04:26:20;;;;;;;0.10;0.10;;;24.70;52.40;;;;;;5049402;28;20497;-59
2022/09/11 04:28:47;;;;;;;1.13;0.47;;;24.70;52.40;;;;;;5049719;28;20056;-59
2022/09/11 04:31:16;;;;;;;1.80;0.00;;;24.70;52.30;;;;;;5045116;28;20401;-59
2022/09/11 04:33:44;;;;;;;0.23;0.10;;;24.70;52.30;;;;;;5049370;28;20049;-59
2022/09/11 04:36:16;;;;;;;0.40;0.13;;;24.70;52.30;;;;;;5049554;28;20060;-59
2022/09/11 04:38:44;;;;;;;0.00;0.00;;;24.70;52.30;;;;;;5031917;28;20139;-59
2022/09/11 04:41:12;;;;;;;0.45;0.10;;;24.70;52.30;;;;;;5049503;28;20051;-59
2022/09/11 04:43:41;;;;;;;0.10;0.10;;;24.70;52.30;;;;;;5031649;28;20064;-59
2022/09/11 04:46:16;;;;;;;0.10;0.03;;;24.70;52.20;;;;;;5049179;28;20460;-59
2022/09/11 04:48:48;;;;;;;0.20;0.20;;;24.70;52.20;;;;;;5049410;28;20061;-59
2022/09/11 04:51:25;;;;;;;0.00;0.00;;;24.70;52.20;;;;;;5031790;28;20048;-59
2022/09/11 04:53:56;;;;;;;0.30;0.10;;;24.70;52.20;;;;;;5032261;28;20056;-61
2022/09/11 04:56:28;;;;;;;0.28;0.13;;;24.70;52.20;;;;;;5031028;28;20049;-59
2022/09/11 04:58:58;;;;;;;0.10;0.10;;;24.70;52.20;;;;;;5048856;28;20132;-59
2022/09/11 05:01:28;;;;;;;0.10;0.10;;;24.70;52.10;;;;;;5015637;28;20045;-59
2022/09/11 05:03:55;;;;;;;0.00;0.00;;;24.70;52.10;;;;;;5044216;28;20511;-59
2022/09/11 05:06:23;;;;;;;0.10;0.10;;;24.80;52.10;;;;;;5031654;28;20425;-59
2022/09/11 05:08:50;;;;;;;0.08;0.08;;;24.80;52.10;;;;;;5048604;28;20587;-59
2022/09/11 05:11:19;;;;;;;0.10;0.10;;;24.80;52.10;;;;;;5048858;28;20470;-59
2022/09/11 05:13:47;;;;;;;0.00;0.00;;;24.70;52.00;;;;;;5048889;28;20041;-59
2022/09/11 05:16:16;;;;;;;0.10;0.10;;;24.70;52.00;;;;;;5048628;28;20045;-59
2022/09/11 05:18:50;;;;;;;0.40;0.10;;;24.70;52.00;;;;;;5049191;28;20080;-59
2022/09/11 05:21:19;;;;;;;2.45;0.20;;;24.50;52.20;;;;;;5048419;28;20614;-59
2022/09/11 05:23:48;;;;;;;0.82;0.08;;;24.40;52.50;;;;;;5049149;28;20049;-59
2022/09/11 05:26:21;;;;;;;1.35;0.20;;;24.20;52.90;;;;;;5048026;28;20048;-59
2022/09/11 05:29:04;;;;;;;0.17;0.10;;;23.90;52.60;;;;;;5048676;28;20049;-59
2022/09/11 05:31:31;;;;;;;0.38;0.10;;;23.60;52.00;;;;;;5048777;28;20052;-59
2022/09/11 05:33:59;;;;;;;0.10;0.10;;;23.20;51.40;;;;;;5047480;28;20045;-59
2022/09/11 05:36:27;;;;;;;0.10;0.10;;;22.90;51.20;;;;;;5046145;28;20137;-59
2022/09/11 05:38:54;;;;;;;0.20;0.20;;;22.50;50.70;;;;;;5048438;28;20352;-59
2022/09/11 05:41:21;;;;;;;0.43;0.30;;;22.20;50.80;;;;;;5048264;28;20044;-59
2022/09/11 05:43:50;;;;;;;0.68;0.13;;;21.80;51.00;;;;;;5030563;28;20049;-59
2022/09/11 05:46:18;;;;;;;0.20;0.20;;;21.50;51.40;;;;;;5047693;28;20119;-59
2022/09/11 05:48:46;;;;;;;0.00;0.00;;;21.20;52.20;;;;;;5048696;28;20049;-59
2022/09/11 05:51:17;;;;;;;0.20;0.13;;;20.90;53.00;;;;;;5047500;28;20051;-59
2022/09/11 05:53:45;;;;;;;0.30;0.10;;;20.70;52.90;;;;;;5048684;28;20049;-59
2022/09/11 05:56:14;;;;;;;0.30;0.17;;;20.40;53.50;;;;;;5047592;28;20560;-59
2022/09/11 05:58:46;;;;;;;0.17;0.17;;;20.20;54.40;;;;;;5048252;28;20095;-59
2022/09/11 06:01:16;;;;;;;0.10;0.10;;;20.10;54.10;;;;;;5048124;28;20052;-59
2022/09/11 06:03:47;;;;;;;0.20;0.20;;;19.90;53.70;;;;;;5048482;28;20053;-59
2022/09/11 06:06:16;;;;;;;0.25;0.20;;;19.80;55.00;;;;;;5048307;28;20052;-59
2022/09/11 06:08:44;;;;;;;0.10;0.10;;;19.70;55.40;;;;;;5042910;28;20057;-59
2022/09/11 06:11:14;;;;;;;1.95;0.10;;;19.60;54.60;;;;;;5047298;28;20043;-59
2022/09/11 06:13:43;;;;;;;0.60;0.10;;;19.50;54.90;;;;;;5048634;28;20053;-59
2022/09/11 06:16:13;;;;;;;0.57;0.40;;;19.40;56.20;;;;;;5047330;28;20286;-59
2022/09/11 06:18:47;;;;;;;0.10;0.00;;;19.30;55.80;;;;;;5048653;28;20075;-59
2022/09/11 06:21:18;;;;;;;0.10;0.10;;;19.30;55.40;;;;;;5047705;28;20217;-59
2022/09/11 06:23:47;;;;;;;0.55;0.10;;;19.20;56.40;;;;;;5048058;28;20049;-59
2022/09/11 06:26:17;;;;;;;1.30;0.30;;;19.20;56.30;;;;;;5047318;28;20080;-59
2022/09/11 06:28:44;;;;;;;0.43;0.20;;;19.20;55.40;;;;;;5048061;28;20049;-59
2022/09/11 06:31:17;;;;;;;0.85;0.20;;;19.10;56.10;;;;;;5047561;28;20076;-60
2022/09/11 06:33:45;;;;;;;0.30;0.20;;;19.10;56.50;;;;;;5047286;28;20076;-59
2022/09/11 06:36:15;;;;;;;0.20;0.20;;;19.00;55.80;;;;;;5048480;28;20059;-59
2022/09/11 06:38:43;;;;;;;4.00;0.47;;;19.00;56.20;;;;;;5032446;28;20491;-59
2022/09/11 06:41:14;;;;;;;0.22;0.22;;;18.90;56.90;;;;;;5047222;28;20049;-59
2022/09/11 06:43:41;;;;;;;;;;;18.90;56.20;;;;;;5052286;28;20144;-59
2022/09/11 06:46:13;;;;;;;0.22;0.20;;;18.90;55.60;;;;;;5033877;28;19920;-60
2022/09/11 06:48:42;;;;;;;1.27;0.28;;;18.80;57.30;;;;;;5051615;28;20056;-59
2022/09/11 06:51:13;;;;;;;0.20;0.15;;;18.80;57.30;;;;;;5051303;28;20490;-59
2022/09/11 06:53:40;;;;;;;0.22;0.20;;;18.80;55.90;;;;;;5033958;28;20468;-59
2022/09/11 06:56:14;;;;;;;2.20;0.20;;;18.80;57.00;;;;;;5050669;28;20041;-58
2022/09/11 06:58:41;;;;;;;0.15;0.15;;;18.80;57.50;;;;;;5051299;28;20082;-59
2022/09/11 07:01:11;;;;;;;0.73;0.20;;;18.80;56.40;;;;;;5051404;28;20135;-59
2022/09/11 07:03:43;;;;;;;0.20;0.20;;;18.70;56.50;;;;;;5051038;28;20489;-59
2022/09/11 07:06:11;;;;;;;0.40;0.30;;;18.70;57.40;;;;;;5052163;28;20045;-59
2022/09/11 07:08:39;;;;;;;0.10;0.10;;;18.70;56.80;;;;;;5051167;28;20497;-59
2022/09/11 07:11:07;;;;;;;0.10;0.10;;;18.70;56.00;;;;;;5032818;28;20132;-58
2022/09/11 07:13:36;;;;;;;0.57;0.30;;;18.60;57.30;;;;;;5047761;28;20307;-59
2022/09/11 07:16:07;;;;;;;0.13;0.13;;;18.60;57.30;;;;;;5042855;28;20111;-59
2022/09/11 07:18:36;;;;;;;0.90;0.30;;;18.60;56.10;;;;;;5051224;28;20049;-59
2022/09/11 07:21:06;;;;;;;0.30;0.22;;;18.50;57.00;;;;;;5050667;28;20044;-59
2022/09/11 07:23:34;;;;;;;0.65;0.20;;;18.50;57.80;;;;;;5050867;28;20048;-59
2022/09/11 07:26:06;;;;;;;0.30;0.30;;;18.40;56.00;;;;;;5050959;28;20048;-59
2022/09/11 07:28:34;;;;;;;0.70;0.20;;;18.40;56.50;;;;;;5033129;28;20057;-58
2022/09/11 07:31:09;;;;;;;0.65;0.35;;;18.30;57.80;;;;;;5051607;28;20402;-59
2022/09/11 07:33:38;;;;;;;0.93;0.65;;;18.30;57.30;;;;;;5050361;28;20087;-59
2022/09/11 07:36:10;;;;;;;0.68;0.25;;;18.30;56.60;;;;;;5050596;28;20497;-59
2022/09/11 07:38:40;;;;;;;0.20;0.20;;;18.20;57.60;;;;;;5050508;28;20087;-59
2022/09/11 07:41:07;;;;;;;0.15;0.15;;;18.20;57.80;;;;;;5051529;28;20049;-59
2022/09/11 07:43:36;;;;;;;0.10;0.10;;;18.10;56.90;;;;;;5032436;28;20598;-58
2022/09/11 07:46:04;;;;;;;0.30;0.10;;;18.00;57.50;;;;;;5045731;28;20488;-59
2022/09/11 07:48:32;;;;;;;0.22;0.22;;;17.90;58.50;;;;;;5050831;28;20045;-59
2022/09/11 07:51:02;;;;;;;0.90;0.20;;;17.90;57.00;;;;;;5049304;28;20128;-59
2022/09/11 07:53:34;;;;;;;0.43;0.40;;;17.80;57.50;;;;;;5050031;28;20128;-59
2022/09/11 07:56:03;;;;;;;0.45;0.30;;;17.70;58.70;;;;;;5050725;28;20052;-59
2022/09/11 07:58:36;;;;;;;0.28;0.25;;;17.70;58.60;;;;;;5049910;28;20448;-59
2022/09/11 08:01:05;;;;;;;0.10;0.10;;;17.80;57.60;;;;;;5033074;28;20442;-59
2022/09/11 08:03:34;;;;;;;0.25;0.20;;;17.80;58.80;;;;;;5049894;28;20440;-59
2022/09/11 08:06:04;;;;;;;0.38;0.25;;;17.80;58.90;;;;;;5050608;28;20045;-59
2022/09/11 08:08:31;;;;;;;0.10;0.10;;;17.80;57.80;;;;;;5049506;28;20040;-59
2022/09/11 08:11:05;;;;;;;1.85;0.20;;;17.80;58.50;;;;;;5050524;28;20292;-59
2022/09/11 08:13:33;;;;;;;0.30;0.20;;;17.80;59.10;;;;;;5032208;28;20073;-59
2022/09/11 08:16:01;;;;;;;0.30;0.30;;;17.80;58.20;;;;;;5049642;28;20055;-59
2022/09/11 08:18:29;;;;;;;0.45;0.20;;;17.80;57.50;;;;;;5045134;28;20382;-60
2022/09/11 08:21:10;;;;;;;0.38;0.17;;;17.80;59.10;;;;;;5049437;28;20552;-59
2022/09/11 08:23:41;;;;;;;0.20;0.20;;;17.90;58.40;;;;;;5049838;28;20053;-59
2022/09/11 08:26:11;;;;;;;0.50;0.30;;;17.90;58.00;;;;;;5049562;28;20068;-59
2022/09/11 08:28:41;;;;;;;0.30;0.30;;;17.90;58.80;;;;;;5050120;28;20205;-59
2022/09/11 08:31:10;;;;;;;0.63;0.30;;;17.90;58.90;;;;;;5049721;28;20060;-59
2022/09/11 08:33:37;;;;;;;0.45;0.28;;;18.00;57.60;;;;;;5048603;28;20049;-59
2022/09/11 08:36:08;;;;;;;0.20;0.20;;;17.90;58.00;;;;;;5050112;28;20064;-59
2022/09/11 08:38:36;;;;;;;0.95;0.20;;;18.00;59.20;;;;;;5049420;28;20045;-59
2022/09/11 08:41:46;;;;;;;1.85;0.30;;;18.00;58.00;;;;;;5049803;28;20044;-59
2022/09/11 08:44:25;;;;;;;0.32;0.20;;;18.00;57.50;;;;;;5034638;28;20080;-59
2022/09/11 08:46:58;;;;;;;0.52;0.28;;;18.10;59.20;;;;;;5049859;28;20045;-59
2022/09/11 08:49:30;;;;;;;0.40;0.40;;;18.10;58.30;;;;;;5044085;28;20075;-59
2022/09/11 08:52:01;;;;;;;0.30;0.25;;;18.10;57.70;;;;;;5049065;28;20068;-59
2022/09/11 08:54:35;;;;;;;2.45;0.38;;;18.10;58.80;;;;;;5049625;28;20048;-59
2022/09/11 08:57:27;;;;;;;0.57;0.15;;;18.10;57.90;;;;;;5048844;28;20052;-59
2022/09/11 09:00:18;;;;;;;0.20;0.20;;;18.10;57.20;;;;;;5048903;28;20503;-59
2022/09/11 09:03:02;;;;;;;1.50;0.38;;;18.10;58.20;;;;;;5049286;28;20579;-59
2022/09/11 09:05:54;;;;;;;0.20;0.20;;;18.10;58.20;;;;;;5049084;28;20059;-59
2022/09/11 09:08:40;;;;;;;0.40;0.20;;;18.10;57.70;;;;;;5049047;28;20277;-59
2022/09/11 09:11:35;;;;;;;0.75;0.30;;;18.00;58.80;;;;;;5048626;28;20056;-59
2022/09/11 09:14:24;;;;;;;0.10;0.10;;;18.10;58.30;;;;;;5049082;28;20309;-59
2022/09/11 09:17:20;;;;;;;1.50;0.30;;;18.10;58.00;;;;;;5048953;28;20131;-59
2022/09/11 09:20:15;;;;;;;0.68;0.20;;;18.10;59.00;;;;;;5048626;28;20505;-59
2022/09/11 09:23:22;;;;;;;0.10;0.10;;;18.10;58.10;;;;;;5044181;28;20443;-59
2022/09/11 09:25:58;;;;;;;0.40;0.30;;;18.00;58.00;;;;;;5048741;28;20053;-59
2022/09/11 09:28:47;;;;;;;0.30;0.30;;;18.00;58.40;;;;;;5048459;28;20065;-59
2022/09/11 09:31:19;;;;;;;0.20;0.20;;;18.00;57.90;;;;;;5048803;28;20497;-59
2022/09/11 09:33:56;;;;;;;0.20;0.20;;;18.00;58.10;;;;;;5047970;28;20045;-59
2022/09/11 09:36:33;;;;;;;0.50;0.10;;;18.00;57.80;;;;;;5048702;28;20048;-59
2022/09/11 09:39:01;;;;;;;0.40;0.25;;;18.00;58.20;;;;;;5047735;28;20405;-59
2022/09/11 09:41:57;;;;;;;0.90;0.30;;;17.90;58.90;;;;;;5048225;28;20124;-59
2022/09/11 09:45:04;;;;;;;0.45;0.20;;;18.00;58.50;;;;;;5048220;28;20059;-59
2022/09/11 09:47:32;;;;;;;0.28;0.17;;;18.00;58.30;;;;;;5047594;28;20224;-59
2022/09/11 09:49:59;;;;;;;0.47;0.40;;;18.00;58.70;;;;;;5048519;28;20489;-59
2022/09/11 09:52:32;;;;;;;0.10;0.10;;;18.00;58.40;;;;;;5048557;28;20053;-59
2022/09/11 09:55:12;;;;;;;0.40;0.17;;;18.00;58.50;;;;;;5043674;28;20049;-59
2022/09/11 09:57:39;;;;;;;0.52;0.30;;;18.00;58.70;;;;;;5030194;28;20051;-59
2022/09/11 10:00:18;;;;;;;1.17;0.22;;;18.00;59.30;;;;;;5030612;28;20421;-59
2022/09/11 10:02:48;;;;;;;0.30;0.30;;;18.10;59.50;;;;;;5047726;28;20394;-60
2022/09/11 10:05:19;;;;;;;0.17;0.15;;;18.10;59.30;;;;;;5047228;28;20508;-59
2022/09/11 10:07:52;;;;;;;0.20;0.20;;;18.20;58.70;;;;;;5030533;28;20614;-59
2022/09/11 10:10:22;;;;;;;0.55;0.40;;;18.20;58.50;;;;;;5029722;28;20041;-59
2022/09/11 10:12:50;;;;;;;1.13;0.13;;;18.20;58.60;;;;;;5047835;28;20462;-59
2022/09/11 10:15:41;;;;;;;0.10;0.10;;;18.20;58.30;;;;;;5047159;28;20099;-59
2022/09/11 10:18:36;;;;;;;0.70;0.20;;;18.20;58.10;;;;;;5048348;28;20433;-59
2022/09/11 10:21:22;;;;;;;0.35;0.10;;;18.20;58.10;;;;;;5047399;28;20045;-59
2022/09/11 10:24:01;;;;;;;0.40;0.20;;;18.20;58.10;;;;;;5031172;28;20056;-59
2022/09/11 10:26:44;;;;;;;1.75;0.20;;;18.20;57.90;;;;;;5026807;28;20349;-59
2022/09/11 10:29:19;;;;;;;0.75;0.40;;;18.30;58.10;;;;;;5047872;28;20508;-59
2022/09/11 10:31:53;;;;;;;0.40;0.28;;;18.30;57.90;;;;;;5047627;28;20041;-59
2022/09/11 10:34:24;;;;;;;0.00;0.00;;;18.20;57.90;;;;;;5047718;28;20059;-59
2022/09/11 10:37:12;;;;;;;;;;;18.30;57.90;;;;;;5030286;28;20045;-59
2022/09/11 10:39:42;;;;;;;0.60;0.28;;;18.20;57.90;;;;;;5047354;28;19943;-59
2022/09/11 10:42:15;;;;;;;2.10;0.10;;;18.30;58.30;;;;;;5047649;28;20057;-59
2022/09/11 10:44:46;;;;;;;0.10;0.10;;;18.30;58.00;;;;;;5047172;28;20080;-59
2022/09/11 10:47:31;;;;;;;0.32;0.32;;;18.30;58.30;;;;;;5047490;28;20049;-59
2022/09/11 10:50:20;;;;;;;0.10;0.10;;;18.40;57.90;;;;;;5047226;28;20053;-59
2022/09/11 10:53:21;;;;;;;0.15;0.10;;;18.40;57.70;;;;;;5047240;28;20045;-59
2022/09/11 10:55:56;;;;;;;1.35;0.20;;;18.40;57.60;;;;;;5047826;28;20057;-59
2022/09/11 10:58:31;;;;;;;0.17;0.00;;;18.50;57.60;;;;;;5042420;28;20505;-59
2022/09/11 11:00:58;;;;;;;0.10;0.10;;;18.50;58.00;;;;;;5047512;28;20049;-59
2022/09/11 11:03:27;;;;;;;0.20;0.10;;;18.50;57.70;;;;;;5047582;28;20049;-59
2022/09/11 11:06:31;;;;;;;0.20;0.20;;;18.50;57.30;;;;;;5029391;28;20055;-59
2022/09/11 11:09:28;;;;;;;0.93;0.00;;;18.60;57.50;;;;;;5032964;28;20083;-59
2022/09/11 11:12:37;;;;;;;0.20;0.10;;;18.60;57.50;;;;;;5047360;28;20041;-60
2022/09/11 11:15:34;;;;;;;0.30;0.30;;;18.60;56.60;;;;;;5047007;28;20453;-59
2022/09/11 11:18:27;;;;;;;0.65;0.20;;;18.60;56.60;;;;;;5047393;28;20397;-59
2022/09/11 11:21:24;;;;;;;0.00;0.00;;;18.60;56.60;;;;;;5029526;28;20049;-59
2022/09/11 11:24:22;;;;;;;0.63;0.10;;;18.60;56.50;;;;;;5047323;28;20044;-59
2022/09/11 11:27:26;;;;;;;0.77;0.10;;;18.50;56.60;;;;;;5049829;28;20412;-59
2022/09/11 11:30:07;;;;;;;0.15;0.10;;;18.50;56.70;;;;;;5046470;28;20049;-59
2022/09/11 11:33:04;;;;;;;0.35;0.10;;;18.50;57.20;;;;;;5050486;28;20137;-59
2022/09/11 11:36:00;;;;;;;0.70;0.08;;;18.50;57.10;;;;;;5050758;28;20060;-59
2022/09/11 11:38:59;;;;;;;0.20;0.20;;;18.50;57.20;;;;;;5035839;28;20461;-59
2022/09/11 11:41:43;;;;;;;0.15;0.10;;;18.50;57.30;;;;;;5050682;28;20041;-59
2022/09/11 11:44:15;;;;;;;0.95;0.20;;;18.50;57.20;;;;;;5050608;28;20128;-59
2022/09/11 11:46:48;;;;;;;0.10;0.10;;;18.50;57.40;;;;;;5050031;28;20045;-59
2022/09/11 11:49:32;;;;;;;0.10;0.10;;;18.50;57.70;;;;;;5050297;28;20568;-59
2022/09/11 11:52:12;;;;;;;0.80;0.10;;;18.60;57.60;;;;;;5050370;28;20633;-59
2022/09/11 11:54:57;;;;;;;0.50;0.20;;;18.60;57.30;;;;;;5050554;28;20049;-59
2022/09/11 11:57:28;;;;;;;0.30;0.10;;;18.60;57.40;;;;;;5045274;28;20053;-59
2022/09/11 12:00:00;;;;;;;;;;;18.70;57.30;;;;;;5050912;28;20071;-59
2022/09/11 12:02:34;;;;;;;0.10;0.10;;;18.70;57.00;;;;;;5048901;28;19921;-59
2022/09/11 12:05:09;;;;;;;0.00;0.00;;;18.70;57.30;;;;;;5046779;28;20056;-59
2022/09/11 12:07:40;;;;;;;0.25;0.20;;;18.70;57.30;;;;;;5050408;28;20444;-59
2022/09/11 12:10:21;;;;;;;0.17;0.10;;;18.70;56.90;;;;;;5050012;28;20049;-60
2022/09/11 12:12:54;;;;;;;0.00;0.00;;;18.70;56.80;;;;;;5031955;28;20049;-59
2022/09/11 12:15:24;;;;;;;0.40;0.20;;;18.80;56.70;;;;;;5050340;28;20041;-59
2022/09/11 12:18:01;;;;;;;1.02;0.20;;;18.80;56.80;;;;;;5049516;28;20060;-59
2022/09/11 12:20:40;;;;;;;0.10;0.10;;;18.80;56.70;;;;;;5050449;28;20404;-59
2022/09/11 12:23:32;;;;;;;1.02;0.20;;;18.80;56.50;;;;;;5031857;28;20045;-60
2022/09/11 12:26:21;;;;;;;0.15;0.15;;;18.80;56.30;;;;;;5050380;28;20136;-59
2022/09/11 12:29:08;;;;;;;0.10;0.10;;;18.90;56.30;;;;;;5035215;28;20294;-59
2022/09/11 12:32:15;;;;;;;0.10;0.10;;;18.80;56.40;;;;;;5049828;28;20056;-59
2022/09/11 12:35:12;;;;;;;0.60;0.10;;;18.90;56.40;;;;;;5033122;28;20055;-59
2022/09/11 12:37:40;;;;;;;0.35;0.20;;;18.90;56.70;;;;;;5048718;28;20137;-59
2022/09/11 12:40:21;;;;;;;0.52;0.10;;;18.90;56.80;;;;;;5049797;28;20055;-59
2022/09/11 12:42:58;;;;;;;0.82;0.03;;;19.00;56.70;;;;;;5048807;28;20372;-59
2022/09/11 12:45:34;;;;;;;0.10;0.10;;;19.00;56.50;;;;;;5049638;28;20140;-59
2022/09/11 12:48:05;;;;;;;0.10;0.10;;;19.10;56.50;;;;;;5031910;28;20488;-59
2022/09/11 12:50:33;;;;;;;0.08;0.08;;;19.10;56.70;;;;;;5049764;28;20045;-59
2022/09/11 12:53:03;;;;;;;0.00;0.00;;;19.10;56.60;;;;;;5049287;28;20045;-59
2022/09/11 12:55:42;;;;;;;1.27;0.20;;;19.20;56.30;;;;;;5049742;28;20055;-59
2022/09/11 12:58:34;;;;;;;0.15;0.15;;;19.20;56.30;;;;;;5032059;28;20041;-59
2022/09/11 13:01:12;;;;;;;0.00;0.00;;;19.20;56.10;;;;;;5048946;28;20099;-59
2022/09/11 13:04:18;;;;;;;0.00;0.00;;;19.30;56.10;;;;;;5049299;28;20504;-59
2022/09/11 13:06:49;;;;;;;0.93;0.55;;;19.30;56.10;;;;;;5044246;28;20053;-59
2022/09/11 13:09:32;;;;;;;0.08;0.08;;;19.30;55.90;;;;;;5048744;28;20063;-59
2022/09/11 13:12:38;;;;;;;0.10;0.00;;;19.30;55.80;;;;;;5049210;28;20346;-59
2022/09/11 13:15:37;;;;;;;0.20;0.10;;;19.30;55.70;;;;;;5049050;28;20495;-59
2022/09/11 13:18:31;;;;;;;0.05;0.00;;;19.30;55.50;;;;;;5030883;28;20083;-59
2022/09/11 13:21:03;;;;;;;0.05;0.05;;;19.30;55.70;;;;;;5048687;28;20055;-59
2022/09/11 13:23:31;;;;;;;0.10;0.10;;;19.30;55.70;;;;;;5049033;28;20063;-59
2022/09/11 13:25:59;;;;;;;0.30;0.00;;;19.30;55.70;;;;;;5048180;28;20466;-59
2022/09/11 13:28:30;;;;;;;0.70;0.10;;;19.30;55.70;;;;;;5048842;28;20445;-59
2022/09/11 13:31:00;;;;;;;;;;;19.30;55.70;;;;;;5049309;28;20045;-59